Hightstown, New Jersey
Current Conditions -  °F | °C
As of 8:53 AM on Monday 20 Oct 2014 (Local Time) from KTTN Reporting Station
Clear Clear  
Wind Chill: 38°   Ceiling: Unl
Heat Index: 41°   Visibility: 10mi
Dew Point: 34°   Wind: 5mph
Humidity: 76%   Direction: 220°SW
Pressure: 30.13"   Gusts: NA
Location:  40.27°N, 74.52°W
Report Text: KTTN 201253Z 22004KT 10SM CLR 05/01 A3013 RMK AO2 SLP197 T00500011
Loading
Personal Weather Stations






























Interactive Weather Map
Tropical Storm Tracking
New forecast layout! Learn more

10-Day Weather Forecast

Advertisements
Track Severe Weather on mobile